createdAt,value
2022-11-10T00:01:24.595Z,100375.56
2022-11-10T00:06:27.569Z,100377.38
2022-11-10T00:11:30.384Z,100375.72
2022-11-10T00:16:51.673Z,100384.97
2022-11-10T00:21:55.171Z,100389.06
2022-11-10T00:26:58.147Z,100395.19
2022-11-10T00:32:01.063Z,100399.81
2022-11-10T00:37:04.512Z,100397.31
2022-11-10T00:42:07.928Z,100393.81
2022-11-10T00:47:10.949Z,100396.34
2022-11-10T00:52:13.873Z,100410.44
2022-11-10T00:57:16.763Z,100399.28
2022-11-10T01:02:20.128Z,100388.69
2022-11-10T01:07:23.029Z,100387.84
2022-11-10T01:12:30.745Z,100387.03
2022-11-10T01:17:33.643Z,100386.69
2022-11-10T01:22:36.739Z,100398.00
2022-11-10T01:27:39.666Z,100387.25
2022-11-10T01:32:42.977Z,100386.94
2022-11-10T01:37:45.753Z,100391.94
2022-11-10T01:42:56.737Z,100395.25
2022-11-10T01:48:07.346Z,100396.78
2022-11-10T01:53:20.816Z,100387.16
2022-11-10T01:58:33.096Z,100395.78
2022-11-10T02:03:54.441Z,100397.59
2022-11-10T02:09:00.516Z,100397.59
2022-11-10T02:14:04.503Z,100398.28
2022-11-10T02:19:21.956Z,100398.97
2022-11-10T02:24:24.931Z,100403.56
2022-11-10T02:29:27.823Z,100399.94
2022-11-10T02:34:31.050Z,100401.91
2022-11-10T02:39:33.952Z,100408.22
2022-11-10T02:44:38.657Z,100424.28
2022-11-10T02:49:41.595Z,100416.13
2022-11-10T02:54:44.525Z,100425.78
2022-11-10T02:59:47.933Z,100426.19
2022-11-10T03:04:51.889Z,100444.53
2022-11-10T03:09:54.717Z,100443.81
2022-11-10T03:14:57.788Z,100443.59
2022-11-10T03:20:00.652Z,100450.72
2022-11-10T03:25:04.475Z,100445.34
2022-11-10T03:30:08.371Z,100452.44
2022-11-10T03:35:11.611Z,100459.41
2022-11-10T03:40:14.817Z,100451.88
2022-11-10T03:45:17.857Z,100455.88
2022-11-10T03:50:20.869Z,100461.75
2022-11-10T03:55:23.782Z,100471.06
2022-11-10T04:00:26.947Z,100476.78
2022-11-10T04:05:48.080Z,100479.66
2022-11-10T04:10:51.063Z,100469.44
2022-11-10T04:15:54.199Z,100480.97
2022-11-10T04:21:01.058Z,100486.81
2022-11-10T04:26:27.744Z,100491.81
2022-11-10T04:31:33.403Z,100497.66
2022-11-10T04:36:39.425Z,100498.16
2022-11-10T04:41:42.464Z,100496.06
2022-11-10T04:46:45.675Z,100501.03
2022-11-10T04:51:48.663Z,100508.72
2022-11-10T04:56:51.528Z,100512.88
2022-11-10T05:01:54.308Z,100511.75
2022-11-10T05:06:57.785Z,100521.06
2022-11-10T05:12:00.695Z,100532.38
2022-11-10T05:17:03.704Z,100531.38
2022-11-10T05:22:07.725Z,100524.94
2022-11-10T05:27:10.564Z,100545.69
2022-11-10T05:32:13.563Z,100546.84
2022-11-10T05:37:17.150Z,100547.50
2022-11-10T05:42:20.002Z,100562.28
2022-11-10T05:47:22.878Z,100568.56
2022-11-10T05:52:25.884Z,100565.25
2022-11-10T05:57:28.520Z,100574.56
2022-11-10T06:02:31.535Z,100584.03
2022-11-10T06:07:34.365Z,100590.16
2022-11-10T06:12:37.256Z,100604.97
2022-11-10T06:17:40.525Z,100615.41
2022-11-10T06:22:43.887Z,100623.22
2022-11-10T06:27:46.715Z,100633.66
2022-11-10T06:32:49.883Z,100638.69
2022-11-10T06:38:07.519Z,100648.00
2022-11-10T06:43:10.443Z,100656.34
2022-11-10T06:48:14.351Z,100661.38
2022-11-10T06:53:18.441Z,100663.25
2022-11-10T06:58:23.613Z,100668.97
2022-11-10T07:03:26.615Z,100683.13
2022-11-10T07:08:30.115Z,100689.38
2022-11-10T07:13:32.949Z,100697.13
2022-11-10T07:18:36.371Z,100694.84
2022-11-10T07:23:40.473Z,100698.03
2022-11-10T07:28:43.410Z,100701.75
2022-11-10T07:33:51.904Z,100706.16
2022-11-10T07:38:57.417Z,100718.81
2022-11-10T07:44:00.391Z,100715.56
2022-11-10T07:49:03.566Z,100726.56
2022-11-10T07:54:06.405Z,100733.41
2022-11-10T07:59:09.349Z,100731.13
2022-11-10T08:04:12.377Z,100743.88
2022-11-10T08:09:15.183Z,100745.16
2022-11-10T08:14:18.196Z,100743.91
2022-11-10T08:19:21.061Z,100751.16
2022-11-10T08:24:23.943Z,100747.47
2022-11-10T08:29:26.871Z,100762.84
2022-11-10T08:34:29.746Z,100758.91
2022-11-10T08:39:38.910Z,100771.78
2022-11-10T08:44:42.311Z,100772.31
2022-11-10T08:49:45.830Z,100780.13
2022-11-10T08:54:48.726Z,100787.19
2022-11-10T08:59:51.626Z,100787.34
2022-11-10T09:04:54.496Z,100806.53
2022-11-10T09:10:06.703Z,100805.03
2022-11-10T09:15:12.014Z,100816.03
2022-11-10T09:20:15.168Z,100824.19
2022-11-10T09:25:18.350Z,100813.84
2022-11-10T09:30:21.370Z,100813.16
2022-11-10T09:35:24.868Z,100820.50
2022-11-10T09:40:34.266Z,100825.31
2022-11-10T09:45:45.050Z,100832.31
2022-11-10T09:51:05.172Z,100835.47
2022-11-10T09:56:19.282Z,100842.13
2022-11-10T10:01:46.249Z,100836.66
2022-11-10T10:07:15.488Z,100825.47
2022-11-10T10:12:44.415Z,100831.78
2022-11-10T10:18:23.238Z,100834.81
2022-11-10T10:29:10.824Z,100845.72
2022-11-10T10:34:21.056Z,100842.19
2022-11-10T10:39:41.798Z,100849.06
2022-11-10T10:45:13.537Z,100844.91
2022-11-10T10:50:25.636Z,100856.59
2022-11-10T10:55:30.559Z,100859.53
2022-11-10T11:00:44.674Z,100863.22
2022-11-10T11:06:17.675Z,100867.25
2022-11-10T11:11:30.283Z,100860.91
2022-11-10T11:16:49.878Z,100876.91
2022-11-10T11:21:55.912Z,100875.38
2022-11-10T11:27:34.132Z,100886.59
2022-11-10T11:33:33.349Z,100901.63
2022-11-10T11:39:13.362Z,100915.84
2022-11-10T11:44:39.007Z,100916.16
2022-11-10T11:49:53.789Z,100927.75
2022-11-10T11:55:42.640Z,100915.84
2022-11-10T12:01:26.240Z,100921.25
2022-11-10T12:06:54.916Z,100928.19
2022-11-10T12:12:24.919Z,100937.47
2022-11-10T12:18:07.167Z,100927.97
2022-11-10T12:23:18.635Z,100943.72
2022-11-10T12:28:42.740Z,100950.34
2022-11-10T12:34:04.456Z,100958.94
2022-11-10T12:39:31.594Z,100961.06
2022-11-10T12:45:04.371Z,100953.53
2022-11-10T12:50:27.056Z,100969.50
2022-11-10T12:55:42.946Z,100975.34
2022-11-10T13:01:12.907Z,100963.56
2022-11-10T13:06:36.775Z,100970.41
2022-11-10T13:11:41.648Z,100976.25
2022-11-10T13:16:44.883Z,100974.97
2022-11-10T13:21:53.833Z,100992.59
2022-11-10T13:27:01.743Z,100983.47
2022-11-10T13:32:13.852Z,100985.31
2022-11-10T13:37:34.923Z,100986.97
2022-11-10T13:42:39.267Z,100995.94
2022-11-10T13:48:07.455Z,100991.91
2022-11-10T13:53:29.424Z,100997.22
2022-11-10T13:58:34.707Z,101002.88
2022-11-10T14:03:47.683Z,101003.16
2022-11-10T14:08:59.914Z,101014.56
2022-11-10T14:14:32.249Z,101012.66
2022-11-10T14:19:45.802Z,101018.41
2022-11-10T14:25:17.345Z,101015.22
2022-11-10T14:30:24.868Z,101019.84
2022-11-10T14:35:31.742Z,101020.16
2022-11-10T14:40:34.711Z,101023.09
2022-11-10T14:45:38.686Z,101021.59
2022-11-10T14:50:42.068Z,101025.38
2022-11-10T14:55:50.605Z,101025.38
2022-11-10T15:00:56.983Z,101036.84
2022-11-10T15:06:00.762Z,101034.06
2022-11-10T15:11:04.209Z,101040.88
2022-11-10T15:16:27.932Z,101048.84
2022-11-10T15:21:34.136Z,101069.28
2022-11-10T15:26:40.743Z,101070.13
2022-11-10T15:31:44.256Z,101072.94
2022-11-10T15:36:47.324Z,101073.22
2022-11-10T15:41:57.007Z,101086.09
2022-11-10T15:46:59.980Z,101099.88
2022-11-10T15:52:24.846Z,101102.13
2022-11-10T15:57:27.738Z,101118.50
2022-11-10T16:02:30.852Z,101127.03
2022-11-10T16:07:34.653Z,101125.94
2022-11-10T16:12:37.659Z,101128.19
2022-11-10T16:17:41.353Z,101146.09
2022-11-10T16:22:44.316Z,101160.22
2022-11-10T16:27:48.470Z,101155.03
2022-11-10T16:32:51.192Z,101166.94
2022-11-10T16:37:54.630Z,101166.50
2022-11-10T16:42:57.540Z,101182.69
2022-11-10T16:48:00.599Z,101190.28
2022-11-10T16:53:06.650Z,101194.34
2022-11-10T16:58:09.647Z,101210.84
2022-11-10T17:03:25.083Z,101229.97
2022-11-10T17:08:34.063Z,101234.56
2022-11-10T17:13:37.072Z,101256.50
2022-11-10T17:18:40.711Z,101240.16
2022-11-10T17:23:43.657Z,101253.28
2022-11-10T17:28:46.707Z,101263.34
2022-11-10T17:33:49.646Z,101277.03
2022-11-10T17:38:52.770Z,101289.00
2022-11-10T17:43:56.979Z,101294.59
2022-11-10T17:49:02.897Z,101303.81
2022-11-10T17:54:18.108Z,101306.59
2022-11-10T17:59:20.968Z,101300.00
2022-11-10T18:04:23.954Z,101309.78
2022-11-10T18:09:26.874Z,101319.81
2022-11-10T18:14:30.443Z,101317.84
2022-11-10T18:19:33.405Z,101319.47
2022-11-10T18:24:36.239Z,101336.63
2022-11-10T18:29:39.121Z,101346.66
2022-11-10T18:34:42.030Z,101355.72
2022-11-10T18:39:45.356Z,101366.59
2022-11-10T18:44:51.412Z,101372.03
2022-11-10T18:49:54.896Z,101365.44
2022-11-10T18:54:57.787Z,101386.06
2022-11-10T19:00:00.885Z,101395.13
2022-11-10T19:05:04.277Z,101389.63
2022-11-10T19:10:08.502Z,101403.41
2022-11-10T19:15:11.428Z,101401.13
2022-11-10T19:20:16.285Z,101407.97
2022-11-10T19:25:19.072Z,101412.06
2022-11-10T19:30:22.023Z,101413.28
2022-11-10T19:35:24.954Z,101423.91
2022-11-10T19:40:27.753Z,101430.50
2022-11-10T19:45:30.576Z,101430.66
2022-11-10T19:50:33.433Z,101432.22
2022-11-10T19:55:36.863Z,101437.75
2022-11-10T20:00:40.272Z,101438.25
2022-11-10T20:05:46.260Z,101442.09
2022-11-10T20:10:50.366Z,101450.03
2022-11-10T20:15:53.247Z,101454.16
2022-11-10T20:21:01.372Z,101459.09
2022-11-10T20:26:14.337Z,101464.50
2022-11-10T20:31:24.893Z,101478.06
2022-11-10T20:36:31.025Z,101484.63
2022-11-10T20:41:34.033Z,101484.00
2022-11-10T20:52:00.926Z,101492.22
2022-11-10T20:57:04.422Z,101506.66
2022-11-10T21:02:07.462Z,101503.63
2022-11-10T21:07:10.816Z,101493.44
2022-11-10T21:12:32.689Z,101492.53
2022-11-10T21:17:38.124Z,101488.38
2022-11-10T21:22:45.347Z,101482.34
2022-11-10T21:27:48.286Z,101496.19
2022-11-10T21:32:51.219Z,101490.28
2022-11-10T21:37:54.467Z,101490.88
2022-11-10T21:42:59.168Z,101500.50
2022-11-10T21:48:03.527Z,101498.75
2022-11-10T21:53:08.682Z,101500.41
2022-11-10T21:58:11.696Z,101509.00
2022-11-10T22:03:14.590Z,101527.00
2022-11-10T22:08:21.786Z,101534.88
2022-11-10T22:13:43.201Z,101540.41
2022-11-10T22:18:46.679Z,101541.41
2022-11-10T22:24:07.992Z,101550.38
2022-11-10T22:29:11.062Z,101554.41
2022-11-10T22:34:13.971Z,101543.38
2022-11-10T22:39:17.763Z,101540.03
2022-11-10T22:44:24.878Z,101543.94
2022-11-10T22:49:28.675Z,101546.06
2022-11-10T22:54:31.592Z,101553.59
2022-11-10T22:59:34.674Z,101543.22
2022-11-10T23:04:37.552Z,101517.00
2022-11-10T23:09:40.477Z,101531.22
2022-11-10T23:14:43.431Z,101541.63
2022-11-10T23:19:46.324Z,101534.00
2022-11-10T23:24:54.258Z,101544.78
2022-11-10T23:29:59.941Z,101552.97
2022-11-10T23:35:02.809Z,101535.50
2022-11-10T23:40:06.853Z,101540.44
2022-11-10T23:45:10.346Z,101529.59
2022-11-10T23:50:13.335Z,101538.31
2022-11-10T23:55:16.307Z,101543.13
